createdAt,value
2023-04-02T00:01:04.283Z,100746.94
2023-04-02T00:03:43.751Z,100756.09
2023-04-02T00:06:34.872Z,100764.28
2023-04-02T00:09:22.581Z,100760.31
2023-04-02T00:11:54.719Z,100764.25
2023-04-02T00:14:27.172Z,100776.28
2023-04-02T00:16:56.355Z,100779.03
2023-04-02T00:19:38.266Z,100772.44
2023-04-02T00:22:07.852Z,100777.34
2023-04-02T00:24:34.360Z,100789.78
2023-04-02T00:27:01.234Z,100797.28
2023-04-02T00:29:27.711Z,100794.41
2023-04-02T00:31:54.923Z,100802.47
2023-04-02T00:34:31.754Z,100797.00
2023-04-02T00:36:59.038Z,100809.56
2023-04-02T00:39:39.390Z,100806.16
2023-04-02T00:42:06.371Z,100810.00
2023-04-02T00:44:38.626Z,100805.34
2023-04-02T00:47:31.794Z,100804.22
2023-04-02T00:50:35.841Z,100810.66
2023-04-02T00:53:12.174Z,100815.56
2023-04-02T00:55:41.890Z,100795.06
2023-04-02T00:58:26.037Z,100823.75
2023-04-02T01:00:53.971Z,100827.97
2023-04-02T01:03:22.783Z,100835.91
2023-04-02T01:06:05.063Z,100836.16
2023-04-02T01:08:56.787Z,100843.28
2023-04-02T01:11:36.352Z,100851.06
2023-04-02T01:14:02.865Z,100858.25
2023-04-02T01:16:33.103Z,100870.66
2023-04-02T01:19:20.898Z,100867.34
2023-04-02T01:22:02.354Z,100883.06
2023-04-02T01:24:34.733Z,100887.25
2023-04-02T01:27:13.732Z,100895.28
2023-04-02T01:29:45.520Z,100903.56
2023-04-02T01:32:23.000Z,100882.44
2023-04-02T01:34:52.533Z,100819.19
2023-04-02T01:37:46.764Z,100929.44
2023-04-02T01:40:31.522Z,100927.28
2023-04-02T01:43:16.232Z,100934.34
2023-04-02T01:45:43.035Z,100940.88
2023-04-02T01:48:16.746Z,100940.06
